sensor_id;sensor_type;location;lat;lon;timestamp;P1;durP1;ratioP1;P2;durP2;ratioP2
3547;SDS011;1788;49.400;11.092;2023-09-30T00:00:40;7.50;;;3.37;;
3547;SDS011;1788;49.400;11.092;2023-09-30T00:03:06;5.10;;;2.70;;
3547;SDS011;1788;49.400;11.092;2023-09-30T00:05:33;7.80;;;3.17;;
3547;SDS011;1788;49.400;11.092;2023-09-30T00:08:00;8.70;;;3.40;;
3547;SDS011;1788;49.400;11.092;2023-09-30T00:10:27;5.33;;;2.97;;
3547;SDS011;1788;49.400;11.092;2023-09-30T00:12:53;6.73;;;3.20;;
3547;SDS011;1788;49.400;11.092;2023-09-30T00:15:21;7.27;;;2.73;;
3547;SDS011;1788;49.400;11.092;2023-09-30T00:17:47;6.43;;;3.37;;
3547;SDS011;1788;49.400;11.092;2023-09-30T00:20:14;6.40;;;3.17;;
3547;SDS011;1788;49.400;11.092;2023-09-30T00:22:41;5.30;;;2.60;;
3547;SDS011;1788;49.400;11.092;2023-09-30T00:25:08;9.63;;;3.63;;
3547;SDS011;1788;49.400;11.092;2023-09-30T00:27:34;5.53;;;3.47;;
3547;SDS011;1788;49.400;11.092;2023-09-30T00:30:01;4.57;;;2.67;;
3547;SDS011;1788;49.400;11.092;2023-09-30T00:32:28;4.77;;;3.00;;
3547;SDS011;1788;49.400;11.092;2023-09-30T00:34:55;6.23;;;3.37;;
3547;SDS011;1788;49.400;11.092;2023-09-30T00:37:22;6.07;;;2.73;;
3547;SDS011;1788;49.400;11.092;2023-09-30T00:39:49;6.50;;;2.60;;
3547;SDS011;1788;49.400;11.092;2023-09-30T00:42:16;5.70;;;2.87;;
3547;SDS011;1788;49.400;11.092;2023-09-30T00:44:42;8.40;;;3.60;;
3547;SDS011;1788;49.400;11.092;2023-09-30T00:47:09;6.30;;;3.50;;
3547;SDS011;1788;49.400;11.092;2023-09-30T00:49:36;7.13;;;3.37;;
3547;SDS011;1788;49.400;11.092;2023-09-30T00:52:03;5.97;;;3.30;;
3547;SDS011;1788;49.400;11.092;2023-09-30T00:54:30;6.60;;;3.53;;
3547;SDS011;1788;49.400;11.092;2023-09-30T00:56:57;9.00;;;3.87;;
3547;SDS011;1788;49.400;11.092;2023-09-30T00:59:23;6.37;;;3.47;;
3547;SDS011;1788;49.400;11.092;2023-09-30T01:01:51;7.03;;;3.80;;
3547;SDS011;1788;49.400;11.092;2023-09-30T01:04:17;7.80;;;3.73;;
3547;SDS011;1788;49.400;11.092;2023-09-30T01:06:45;7.30;;;3.77;;
3547;SDS011;1788;49.400;11.092;2023-09-30T01:09:11;6.77;;;3.67;;
3547;SDS011;1788;49.400;11.092;2023-09-30T01:11:39;7.97;;;4.00;;
3547;SDS011;1788;49.400;11.092;2023-09-30T01:14:05;7.90;;;3.53;;
3547;SDS011;1788;49.400;11.092;2023-09-30T01:16:31;6.37;;;3.23;;
3547;SDS011;1788;49.400;11.092;2023-09-30T01:18:58;9.10;;;3.80;;
3547;SDS011;1788;49.400;11.092;2023-09-30T01:21:25;5.60;;;3.37;;
3547;SDS011;1788;49.400;11.092;2023-09-30T01:23:51;6.83;;;3.37;;
3547;SDS011;1788;49.400;11.092;2023-09-30T01:26:18;6.37;;;3.50;;
3547;SDS011;1788;49.400;11.092;2023-09-30T01:28:44;6.30;;;3.13;;
3547;SDS011;1788;49.400;11.092;2023-09-30T01:31:11;7.77;;;3.30;;
3547;SDS011;1788;49.400;11.092;2023-09-30T01:33:38;7.63;;;3.30;;
3547;SDS011;1788;49.400;11.092;2023-09-30T01:36:05;8.17;;;3.70;;
3547;SDS011;1788;49.400;11.092;2023-09-30T01:38:32;6.63;;;3.20;;
3547;SDS011;1788;49.400;11.092;2023-09-30T01:40:59;6.27;;;3.57;;
3547;SDS011;1788;49.400;11.092;2023-09-30T01:43:26;11.17;;;4.30;;
3547;SDS011;1788;49.400;11.092;2023-09-30T01:45:52;6.40;;;3.43;;
3547;SDS011;1788;49.400;11.092;2023-09-30T01:48:19;8.50;;;3.30;;
3547;SDS011;1788;49.400;11.092;2023-09-30T01:50:45;6.77;;;3.70;;
3547;SDS011;1788;49.400;11.092;2023-09-30T01:53:12;7.30;;;3.77;;
3547;SDS011;1788;49.400;11.092;2023-09-30T01:55:39;7.93;;;3.30;;
3547;SDS011;1788;49.400;11.092;2023-09-30T01:58:06;8.53;;;3.40;;
3547;SDS011;1788;49.400;11.092;2023-09-30T02:00:33;6.53;;;3.57;;
3547;SDS011;1788;49.400;11.092;2023-09-30T02:03:00;6.97;;;3.83;;
3547;SDS011;1788;49.400;11.092;2023-09-30T02:05:27;6.67;;;3.77;;
3547;SDS011;1788;49.400;11.092;2023-09-30T02:07:54;9.10;;;4.07;;
3547;SDS011;1788;49.400;11.092;2023-09-30T02:10:21;4.47;;;3.33;;
3547;SDS011;1788;49.400;11.092;2023-09-30T02:12:47;6.07;;;3.13;;
3547;SDS011;1788;49.400;11.092;2023-09-30T02:15:14;7.37;;;3.03;;
3547;SDS011;1788;49.400;11.092;2023-09-30T02:17:41;7.43;;;3.80;;
3547;SDS011;1788;49.400;11.092;2023-09-30T02:20:07;6.77;;;3.60;;
3547;SDS011;1788;49.400;11.092;2023-09-30T02:22:35;6.90;;;3.73;;
3547;SDS011;1788;49.400;11.092;2023-09-30T02:25:01;6.77;;;3.63;;
3547;SDS011;1788;49.400;11.092;2023-09-30T02:27:29;11.90;;;3.70;;
3547;SDS011;1788;49.400;11.092;2023-09-30T02:29:55;8.33;;;4.03;;
3547;SDS011;1788;49.400;11.092;2023-09-30T02:32:22;6.73;;;3.60;;
3547;SDS011;1788;49.400;11.092;2023-09-30T02:34:49;10.90;;;4.07;;
3547;SDS011;1788;49.400;11.092;2023-09-30T02:37:15;5.97;;;3.67;;
3547;SDS011;1788;49.400;11.092;2023-09-30T02:39:43;8.87;;;3.43;;
3547;SDS011;1788;49.400;11.092;2023-09-30T02:42:09;7.57;;;3.60;;
3547;SDS011;1788;49.400;11.092;2023-09-30T02:44:37;5.60;;;3.60;;
3547;SDS011;1788;49.400;11.092;2023-09-30T02:47:03;7.97;;;3.77;;
3547;SDS011;1788;49.400;11.092;2023-09-30T02:49:32;5.70;;;3.03;;
3547;SDS011;1788;49.400;11.092;2023-09-30T02:51:57;8.20;;;3.67;;
3547;SDS011;1788;49.400;11.092;2023-09-30T02:54:24;6.10;;;3.10;;
3547;SDS011;1788;49.400;11.092;2023-09-30T02:56:50;8.50;;;3.40;;
3547;SDS011;1788;49.400;11.092;2023-09-30T02:59:17;6.37;;;3.07;;
3547;SDS011;1788;49.400;11.092;2023-09-30T03:01:44;4.37;;;2.70;;
3547;SDS011;1788;49.400;11.092;2023-09-30T03:04:11;6.67;;;3.73;;
3547;SDS011;1788;49.400;11.092;2023-09-30T03:06:38;5.67;;;2.53;;
3547;SDS011;1788;49.400;11.092;2023-09-30T03:09:05;4.00;;;2.37;;
3547;SDS011;1788;49.400;11.092;2023-09-30T03:11:32;4.67;;;2.43;;
3547;SDS011;1788;49.400;11.092;2023-09-30T03:13:58;2.43;;;2.27;;
3547;SDS011;1788;49.400;11.092;2023-09-30T03:16:25;3.20;;;1.83;;
3547;SDS011;1788;49.400;11.092;2023-09-30T03:18:52;2.27;;;2.07;;
3547;SDS011;1788;49.400;11.092;2023-09-30T03:21:19;2.50;;;1.70;;
3547;SDS011;1788;49.400;11.092;2023-09-30T03:23:46;2.80;;;1.50;;
3547;SDS011;1788;49.400;11.092;2023-09-30T03:26:13;2.53;;;1.50;;
3547;SDS011;1788;49.400;11.092;2023-09-30T03:28:39;2.33;;;1.20;;
3547;SDS011;1788;49.400;11.092;2023-09-30T03:31:06;1.03;;;0.93;;
3547;SDS011;1788;49.400;11.092;2023-09-30T03:33:33;2.00;;;1.83;;
3547;SDS011;1788;49.400;11.092;2023-09-30T03:36:00;2.80;;;1.50;;
3547;SDS011;1788;49.400;11.092;2023-09-30T03:38:27;1.90;;;1.80;;
3547;SDS011;1788;49.400;11.092;2023-09-30T03:40:53;3.27;;;2.13;;
3547;SDS011;1788;49.400;11.092;2023-09-30T03:45:47;3.67;;;2.00;;
3547;SDS011;1788;49.400;11.092;2023-09-30T03:48:14;3.43;;;2.20;;
3547;SDS011;1788;49.400;11.092;2023-09-30T03:50:41;5.63;;;2.50;;
3547;SDS011;1788;49.400;11.092;2023-09-30T03:53:08;6.50;;;2.80;;
3547;SDS011;1788;49.400;11.092;2023-09-30T03:55:35;3.43;;;2.40;;
3547;SDS011;1788;49.400;11.092;2023-09-30T03:58:01;3.80;;;1.93;;
3547;SDS011;1788;49.400;11.092;2023-09-30T04:00:28;2.53;;;1.90;;
3547;SDS011;1788;49.400;11.092;2023-09-30T04:02:54;2.63;;;1.70;;
3547;SDS011;1788;49.400;11.092;2023-09-30T04:05:22;2.23;;;2.03;;
3547;SDS011;1788;49.400;11.092;2023-09-30T04:07:48;3.70;;;2.13;;
3547;SDS011;1788;49.400;11.092;2023-09-30T04:10:15;3.43;;;1.93;;
3547;SDS011;1788;49.400;11.092;2023-09-30T04:12:42;2.83;;;1.80;;
3547;SDS011;1788;49.400;11.092;2023-09-30T04:15:08;2.63;;;2.10;;
3547;SDS011;1788;49.400;11.092;2023-09-30T04:17:35;4.10;;;2.50;;
3547;SDS011;1788;49.400;11.092;2023-09-30T04:20:02;4.20;;;2.33;;
3547;SDS011;1788;49.400;11.092;2023-09-30T04:22:28;6.13;;;2.70;;
3547;SDS011;1788;49.400;11.092;2023-09-30T04:24:55;3.70;;;2.03;;
3547;SDS011;1788;49.400;11.092;2023-09-30T04:27:21;2.23;;;2.03;;
3547;SDS011;1788;49.400;11.092;2023-09-30T04:29:48;6.40;;;2.83;;
3547;SDS011;1788;49.400;11.092;2023-09-30T04:32:15;3.57;;;2.47;;
3547;SDS011;1788;49.400;11.092;2023-09-30T04:34:41;3.67;;;2.40;;
3547;SDS011;1788;49.400;11.092;2023-09-30T04:37:09;3.73;;;2.70;;
3547;SDS011;1788;49.400;11.092;2023-09-30T04:39:35;4.17;;;2.13;;
3547;SDS011;1788;49.400;11.092;2023-09-30T04:42:03;4.70;;;2.70;;
3547;SDS011;1788;49.400;11.092;2023-09-30T04:44:29;3.83;;;2.50;;
3547;SDS011;1788;49.400;11.092;2023-09-30T04:46:57;1.90;;;1.83;;
3547;SDS011;1788;49.400;11.092;2023-09-30T04:49:23;3.20;;;2.30;;
3547;SDS011;1788;49.400;11.092;2023-09-30T04:51:51;2.63;;;2.03;;
3547;SDS011;1788;49.400;11.092;2023-09-30T04:54:17;2.43;;;2.10;;
3547;SDS011;1788;49.400;11.092;2023-09-30T04:56:45;3.10;;;1.83;;
3547;SDS011;1788;49.400;11.092;2023-09-30T04:59:11;4.80;;;2.30;;
3547;SDS011;1788;49.400;11.092;2023-09-30T05:01:39;3.10;;;2.50;;
3547;SDS011;1788;49.400;11.092;2023-09-30T05:04:05;4.20;;;1.77;;
3547;SDS011;1788;49.400;11.092;2023-09-30T05:06:33;3.63;;;2.10;;
3547;SDS011;1788;49.400;11.092;2023-09-30T05:08:59;3.70;;;2.13;;
3547;SDS011;1788;49.400;11.092;2023-09-30T05:11:27;4.40;;;2.37;;
3547;SDS011;1788;49.400;11.092;2023-09-30T05:13:53;3.90;;;2.50;;
3547;SDS011;1788;49.400;11.092;2023-09-30T05:16:21;4.67;;;2.53;;
3547;SDS011;1788;49.400;11.092;2023-09-30T05:18:47;4.37;;;2.23;;
3547;SDS011;1788;49.400;11.092;2023-09-30T05:21:14;3.57;;;2.13;;
3547;SDS011;1788;49.400;11.092;2023-09-30T05:23:40;2.30;;;2.10;;
3547;SDS011;1788;49.400;11.092;2023-09-30T05:26:07;4.50;;;2.03;;
3547;SDS011;1788;49.400;11.092;2023-09-30T05:28:34;3.07;;;2.50;;
3547;SDS011;1788;49.400;11.092;2023-09-30T05:31:00;3.70;;;2.53;;
3547;SDS011;1788;49.400;11.092;2023-09-30T05:33:27;3.73;;;2.33;;
3547;SDS011;1788;49.400;11.092;2023-09-30T05:35:53;3.40;;;2.50;;
3547;SDS011;1788;49.400;11.092;2023-09-30T05:38:20;4.03;;;2.10;;
3547;SDS011;1788;49.400;11.092;2023-09-30T05:40:47;3.20;;;1.90;;
3547;SDS011;1788;49.400;11.092;2023-09-30T05:43:15;4.90;;;2.20;;
3547;SDS011;1788;49.400;11.092;2023-09-30T05:45:42;2.40;;;1.87;;
3547;SDS011;1788;49.400;11.092;2023-09-30T05:48:09;1.90;;;1.83;;
3547;SDS011;1788;49.400;11.092;2023-09-30T05:50:36;4.73;;;2.23;;
3547;SDS011;1788;49.400;11.092;2023-09-30T05:53:03;2.87;;;1.90;;
3547;SDS011;1788;49.400;11.092;2023-09-30T05:55:30;3.97;;;2.40;;
3547;SDS011;1788;49.400;11.092;2023-09-30T05:57:57;4.27;;;2.53;;
3547;SDS011;1788;49.400;11.092;2023-09-30T06:00:24;3.60;;;2.20;;
3547;SDS011;1788;49.400;11.092;2023-09-30T06:02:51;3.60;;;2.23;;
3547;SDS011;1788;49.400;11.092;2023-09-30T06:05:18;4.10;;;2.40;;
3547;SDS011;1788;49.400;11.092;2023-09-30T06:10:11;3.30;;;2.20;;
3547;SDS011;1788;49.400;11.092;2023-09-30T06:12:38;6.20;;;2.37;;
3547;SDS011;1788;49.400;11.092;2023-09-30T06:15:05;3.37;;;2.23;;
3547;SDS011;1788;49.400;11.092;2023-09-30T06:17:31;4.10;;;2.37;;
3547;SDS011;1788;49.400;11.092;2023-09-30T06:19:59;4.57;;;3.00;;
3547;SDS011;1788;49.400;11.092;2023-09-30T06:22:25;4.17;;;2.70;;
3547;SDS011;1788;49.400;11.092;2023-09-30T06:24:52;4.80;;;2.83;;
3547;SDS011;1788;49.400;11.092;2023-09-30T06:27:19;4.43;;;2.73;;
3547;SDS011;1788;49.400;11.092;2023-09-30T06:29:45;5.60;;;3.10;;
3547;SDS011;1788;49.400;11.092;2023-09-30T06:32:12;4.83;;;3.13;;
3547;SDS011;1788;49.400;11.092;2023-09-30T06:34:38;4.80;;;3.13;;
3547;SDS011;1788;49.400;11.092;2023-09-30T06:37:05;5.87;;;3.27;;
3547;SDS011;1788;49.400;11.092;2023-09-30T06:39:32;3.63;;;2.50;;
3547;SDS011;1788;49.400;11.092;2023-09-30T06:41:59;4.00;;;3.17;;
3547;SDS011;1788;49.400;11.092;2023-09-30T06:44:26;5.10;;;3.10;;
3547;SDS011;1788;49.400;11.092;2023-09-30T06:46:52;4.70;;;3.03;;
3547;SDS011;1788;49.400;11.092;2023-09-30T06:49:19;6.20;;;3.70;;
3547;SDS011;1788;49.400;11.092;2023-09-30T06:51:45;3.83;;;3.33;;
3547;SDS011;1788;49.400;11.092;2023-09-30T06:54:13;4.83;;;3.20;;
3547;SDS011;1788;49.400;11.092;2023-09-30T06:56:39;7.23;;;3.93;;
3547;SDS011;1788;49.400;11.092;2023-09-30T06:59:07;2.83;;;2.70;;
3547;SDS011;1788;49.400;11.092;2023-09-30T07:01:33;5.97;;;2.90;;
3547;SDS011;1788;49.400;11.092;2023-09-30T07:04:00;4.57;;;2.93;;
3547;SDS011;1788;49.400;11.092;2023-09-30T07:06:27;6.03;;;2.93;;
3547;SDS011;1788;49.400;11.092;2023-09-30T07:08:54;4.40;;;2.63;;
3547;SDS011;1788;49.400;11.092;2023-09-30T07:13:47;5.20;;;2.80;;
3547;SDS011;1788;49.400;11.092;2023-09-30T07:16:14;3.83;;;3.03;;
3547;SDS011;1788;49.400;11.092;2023-09-30T07:18:40;5.07;;;2.80;;
3547;SDS011;1788;49.400;11.092;2023-09-30T07:21:07;3.93;;;2.97;;
3547;SDS011;1788;49.400;11.092;2023-09-30T07:23:34;4.63;;;2.87;;
3547;SDS011;1788;49.400;11.092;2023-09-30T07:26:01;3.20;;;2.13;;
3547;SDS011;1788;49.400;11.092;2023-09-30T07:28:28;3.23;;;2.43;;
3547;SDS011;1788;49.400;11.092;2023-09-30T07:30:55;4.73;;;2.60;;
3547;SDS011;1788;49.400;11.092;2023-09-30T07:33:21;3.37;;;2.63;;
3547;SDS011;1788;49.400;11.092;2023-09-30T07:35:48;4.77;;;3.20;;
3547;SDS011;1788;49.400;11.092;2023-09-30T07:38:15;3.07;;;2.60;;
3547;SDS011;1788;49.400;11.092;2023-09-30T07:40:42;5.07;;;2.80;;
3547;SDS011;1788;49.400;11.092;2023-09-30T07:43:09;2.70;;;2.00;;
3547;SDS011;1788;49.400;11.092;2023-09-30T07:45:36;3.87;;;2.70;;
3547;SDS011;1788;49.400;11.092;2023-09-30T07:48:02;3.33;;;2.60;;
3547;SDS011;1788;49.400;11.092;2023-09-30T07:50:29;3.93;;;2.53;;
3547;SDS011;1788;49.400;11.092;2023-09-30T07:52:55;4.03;;;2.97;;
3547;SDS011;1788;49.400;11.092;2023-09-30T07:55:23;6.10;;;3.23;;
3547;SDS011;1788;49.400;11.092;2023-09-30T07:57:49;2.67;;;2.23;;
3547;SDS011;1788;49.400;11.092;2023-09-30T08:00:17;6.17;;;2.70;;
3547;SDS011;1788;49.400;11.092;2023-09-30T08:02:44;5.83;;;2.40;;
3547;SDS011;1788;49.400;11.092;2023-09-30T08:05:11;6.40;;;3.00;;
3547;SDS011;1788;49.400;11.092;2023-09-30T08:07:37;5.20;;;3.37;;
3547;SDS011;1788;49.400;11.092;2023-09-30T08:10:04;3.70;;;2.73;;
3547;SDS011;1788;49.400;11.092;2023-09-30T08:12:31;4.37;;;2.97;;
3547;SDS011;1788;49.400;11.092;2023-09-30T08:14:57;4.37;;;2.80;;
3547;SDS011;1788;49.400;11.092;2023-09-30T08:17:24;4.70;;;3.00;;
3547;SDS011;1788;49.400;11.092;2023-09-30T08:19:51;5.70;;;3.10;;
3547;SDS011;1788;49.400;11.092;2023-09-30T08:22:18;3.90;;;2.70;;
3547;SDS011;1788;49.400;11.092;2023-09-30T08:24:45;4.40;;;2.77;;
3547;SDS011;1788;49.400;11.092;2023-09-30T08:27:12;5.00;;;3.07;;
3547;SDS011;1788;49.400;11.092;2023-09-30T08:29:38;5.07;;;3.03;;
3547;SDS011;1788;49.400;11.092;2023-09-30T08:32:05;5.27;;;3.27;;
3547;SDS011;1788;49.400;11.092;2023-09-30T08:34:32;5.83;;;3.27;;
3547;SDS011;1788;49.400;11.092;2023-09-30T08:36:59;5.80;;;3.00;;
3547;SDS011;1788;49.400;11.092;2023-09-30T08:39:27;4.93;;;2.60;;
3547;SDS011;1788;49.400;11.092;2023-09-30T08:41:53;3.50;;;2.70;;
3547;SDS011;1788;49.400;11.092;2023-09-30T08:44:20;3.13;;;2.43;;
3547;SDS011;1788;49.400;11.092;2023-09-30T08:46:47;5.40;;;3.63;;
3547;SDS011;1788;49.400;11.092;2023-09-30T08:49:14;2.70;;;2.50;;
3547;SDS011;1788;49.400;11.092;2023-09-30T08:51:40;4.10;;;3.13;;
3547;SDS011;1788;49.400;11.092;2023-09-30T08:54:07;3.73;;;2.43;;
3547;SDS011;1788;49.400;11.092;2023-09-30T08:56:34;5.73;;;3.40;;
3547;SDS011;1788;49.400;11.092;2023-09-30T08:59:02;3.97;;;2.53;;
3547;SDS011;1788;49.400;11.092;2023-09-30T09:01:29;3.27;;;2.90;;
3547;SDS011;1788;49.400;11.092;2023-09-30T09:03:55;5.90;;;2.73;;
3547;SDS011;1788;49.400;11.092;2023-09-30T09:06:22;4.20;;;2.93;;
3547;SDS011;1788;49.400;11.092;2023-09-30T09:08:48;6.07;;;3.47;;
3547;SDS011;1788;49.400;11.092;2023-09-30T09:11:15;6.10;;;3.40;;
3547;SDS011;1788;49.400;11.092;2023-09-30T09:16:09;5.03;;;3.23;;
3547;SDS011;1788;49.400;11.092;2023-09-30T09:18:35;6.57;;;3.87;;
3547;SDS011;1788;49.400;11.092;2023-09-30T09:23:28;3.73;;;3.07;;
3547;SDS011;1788;49.400;11.092;2023-09-30T09:25:55;4.13;;;3.33;;
3547;SDS011;1788;49.400;11.092;2023-09-30T09:28:23;5.07;;;3.07;;
3547;SDS011;1788;49.400;11.092;2023-09-30T09:30:48;6.43;;;2.87;;
3547;SDS011;1788;49.400;11.092;2023-09-30T09:33:15;5.33;;;3.10;;
3547;SDS011;1788;49.400;11.092;2023-09-30T09:35:42;4.33;;;3.23;;
3547;SDS011;1788;49.400;11.092;2023-09-30T09:38:09;5.70;;;2.83;;
3547;SDS011;1788;49.400;11.092;2023-09-30T09:40:37;3.00;;;2.43;;
3547;SDS011;1788;49.400;11.092;2023-09-30T09:43:04;6.17;;;2.73;;
3547;SDS011;1788;49.400;11.092;2023-09-30T09:47:58;6.73;;;3.63;;
3547;SDS011;1788;49.400;11.092;2023-09-30T09:50:25;3.33;;;2.53;;
3547;SDS011;1788;49.400;11.092;2023-09-30T09:52:52;4.93;;;2.93;;
3547;SDS011;1788;49.400;11.092;2023-09-30T09:55:18;4.67;;;2.37;;
3547;SDS011;1788;49.400;11.092;2023-09-30T09:57:45;3.43;;;2.90;;
3547;SDS011;1788;49.400;11.092;2023-09-30T10:02:38;4.30;;;3.30;;
3547;SDS011;1788;49.400;11.092;2023-09-30T10:05:06;5.17;;;2.87;;
3547;SDS011;1788;49.400;11.092;2023-09-30T10:07:34;3.07;;;2.37;;
3547;SDS011;1788;49.400;11.092;2023-09-30T10:10:00;3.37;;;2.10;;
3547;SDS011;1788;49.400;11.092;2023-09-30T10:12:26;6.13;;;2.93;;
3547;SDS011;1788;49.400;11.092;2023-09-30T10:14:53;5.20;;;2.97;;
3547;SDS011;1788;49.400;11.092;2023-09-30T10:17:19;5.17;;;2.67;;
3547;SDS011;1788;49.400;11.092;2023-09-30T10:24:39;3.90;;;3.07;;
3547;SDS011;1788;49.400;11.092;2023-09-30T10:32:00;4.70;;;2.80;;
3547;SDS011;1788;49.400;11.092;2023-09-30T10:34:27;4.00;;;2.70;;
3547;SDS011;1788;49.400;11.092;2023-09-30T10:36:54;5.27;;;2.57;;
3547;SDS011;1788;49.400;11.092;2023-09-30T10:39:52;5.30;;;2.93;;
3547;SDS011;1788;49.400;11.092;2023-09-30T10:46:41;4.53;;;2.97;;
3547;SDS011;1788;49.400;11.092;2023-09-30T10:51:35;3.70;;;2.87;;
3547;SDS011;1788;49.400;11.092;2023-09-30T10:54:02;5.17;;;2.70;;
3547;SDS011;1788;49.400;11.092;2023-09-30T10:58:55;2.90;;;2.57;;
3547;SDS011;1788;49.400;11.092;2023-09-30T11:01:23;4.33;;;2.80;;
3547;SDS011;1788;49.400;11.092;2023-09-30T11:03:50;4.67;;;3.07;;
3547;SDS011;1788;49.400;11.092;2023-09-30T11:06:17;6.80;;;3.63;;
3547;SDS011;1788;49.400;11.092;2023-09-30T11:11:09;5.27;;;3.43;;
3547;SDS011;1788;49.400;11.092;2023-09-30T11:13:37;4.80;;;3.60;;
3547;SDS011;1788;49.400;11.092;2023-09-30T11:16:03;5.43;;;2.90;;
3547;SDS011;1788;49.400;11.092;2023-09-30T11:18:32;4.53;;;3.23;;
3547;SDS011;1788;49.400;11.092;2023-09-30T11:23:25;4.27;;;3.00;;
3547;SDS011;1788;49.400;11.092;2023-09-30T11:25:53;4.47;;;3.57;;
3547;SDS011;1788;49.400;11.092;2023-09-30T11:28:19;7.53;;;2.97;;
3547;SDS011;1788;49.400;11.092;2023-09-30T11:33:12;5.40;;;3.37;;
3547;SDS011;1788;49.400;11.092;2023-09-30T11:35:39;9.70;;;4.07;;
3547;SDS011;1788;49.400;11.092;2023-09-30T11:38:05;8.50;;;3.37;;
3547;SDS011;1788;49.400;11.092;2023-09-30T11:40:32;6.13;;;3.50;;
3547;SDS011;1788;49.400;11.092;2023-09-30T11:45:25;6.50;;;3.63;;
3547;SDS011;1788;49.400;11.092;2023-09-30T11:47:52;5.67;;;2.70;;
3547;SDS011;1788;49.400;11.092;2023-09-30T11:50:18;5.23;;;3.87;;
3547;SDS011;1788;49.400;11.092;2023-09-30T11:52:46;5.67;;;3.50;;
3547;SDS011;1788;49.400;11.092;2023-09-30T11:55:12;5.33;;;3.23;;
3547;SDS011;1788;49.400;11.092;2023-09-30T11:57:39;3.97;;;3.30;;
3547;SDS011;1788;49.400;11.092;2023-09-30T12:00:05;6.73;;;4.20;;
3547;SDS011;1788;49.400;11.092;2023-09-30T12:02:32;8.47;;;3.20;;
3547;SDS011;1788;49.400;11.092;2023-09-30T12:04:59;5.13;;;3.30;;
3547;SDS011;1788;49.400;11.092;2023-09-30T12:07:26;5.80;;;3.07;;
3547;SDS011;1788;49.400;11.092;2023-09-30T12:09:53;4.83;;;3.20;;
3547;SDS011;1788;49.400;11.092;2023-09-30T12:12:20;4.07;;;3.10;;
3547;SDS011;1788;49.400;11.092;2023-09-30T12:14:47;4.23;;;3.23;;
3547;SDS011;1788;49.400;11.092;2023-09-30T12:17:14;5.13;;;3.57;;
3547;SDS011;1788;49.400;11.092;2023-09-30T12:19:41;4.23;;;3.33;;
3547;SDS011;1788;49.400;11.092;2023-09-30T12:22:07;6.53;;;3.40;;
3547;SDS011;1788;49.400;11.092;2023-09-30T12:24:34;6.13;;;3.37;;
3547;SDS011;1788;49.400;11.092;2023-09-30T12:27:00;6.77;;;3.33;;
3547;SDS011;1788;49.400;11.092;2023-09-30T12:29:28;6.10;;;2.73;;
3547;SDS011;1788;49.400;11.092;2023-09-30T12:31:54;5.73;;;2.90;;
3547;SDS011;1788;49.400;11.092;2023-09-30T12:34:20;5.67;;;2.83;;
3547;SDS011;1788;49.400;11.092;2023-09-30T12:36:48;6.70;;;3.07;;
3547;SDS011;1788;49.400;11.092;2023-09-30T12:39:14;4.87;;;2.90;;
3547;SDS011;1788;49.400;11.092;2023-09-30T12:41:41;4.63;;;2.70;;
3547;SDS011;1788;49.400;11.092;2023-09-30T12:44:08;8.57;;;3.30;;
3547;SDS011;1788;49.400;11.092;2023-09-30T12:46:34;5.47;;;3.03;;
3547;SDS011;1788;49.400;11.092;2023-09-30T12:49:02;4.63;;;3.10;;
3547;SDS011;1788;49.400;11.092;2023-09-30T12:51:28;4.87;;;3.13;;
3547;SDS011;1788;49.400;11.092;2023-09-30T12:53:55;5.67;;;3.30;;
3547;SDS011;1788;49.400;11.092;2023-09-30T12:56:22;5.00;;;3.03;;
3547;SDS011;1788;49.400;11.092;2023-09-30T12:58:50;6.17;;;3.03;;
3547;SDS011;1788;49.400;11.092;2023-09-30T13:01:16;5.60;;;3.00;;
3547;SDS011;1788;49.400;11.092;2023-09-30T13:03:43;4.83;;;2.83;;
3547;SDS011;1788;49.400;11.092;2023-09-30T13:06:09;3.10;;;2.70;;
3547;SDS011;1788;49.400;11.092;2023-09-30T13:08:36;4.67;;;3.10;;
3547;SDS011;1788;49.400;11.092;2023-09-30T13:11:03;5.80;;;3.53;;
3547;SDS011;1788;49.400;11.092;2023-09-30T13:13:31;5.00;;;3.03;;
3547;SDS011;1788;49.400;11.092;2023-09-30T13:15:57;4.93;;;3.67;;
3547;SDS011;1788;49.400;11.092;2023-09-30T13:18:23;7.50;;;3.47;;
3547;SDS011;1788;49.400;11.092;2023-09-30T13:20:50;4.10;;;2.73;;
3547;SDS011;1788;49.400;11.092;2023-09-30T13:23:18;6.60;;;3.60;;
3547;SDS011;1788;49.400;11.092;2023-09-30T13:25:44;5.67;;;3.00;;
3547;SDS011;1788;49.400;11.092;2023-09-30T13:28:11;4.37;;;3.27;;
3547;SDS011;1788;49.400;11.092;2023-09-30T13:30:38;3.80;;;3.37;;
3547;SDS011;1788;49.400;11.092;2023-09-30T13:33:05;4.37;;;3.23;;
3547;SDS011;1788;49.400;11.092;2023-09-30T13:35:32;4.20;;;3.33;;
3547;SDS011;1788;49.400;11.092;2023-09-30T13:37:58;5.13;;;3.23;;
3547;SDS011;1788;49.400;11.092;2023-09-30T13:40:25;5.80;;;3.33;;
3547;SDS011;1788;49.400;11.092;2023-09-30T13:42:52;3.83;;;2.83;;
3547;SDS011;1788;49.400;11.092;2023-09-30T13:45:19;6.53;;;4.07;;
3547;SDS011;1788;49.400;11.092;2023-09-30T13:47:46;5.57;;;3.80;;
3547;SDS011;1788;49.400;11.092;2023-09-30T13:50:13;7.70;;;4.03;;
3547;SDS011;1788;49.400;11.092;2023-09-30T13:52:40;7.00;;;3.67;;
3547;SDS011;1788;49.400;11.092;2023-09-30T13:55:06;4.87;;;3.63;;
3547;SDS011;1788;49.400;11.092;2023-09-30T13:57:33;6.03;;;3.57;;
3547;SDS011;1788;49.400;11.092;2023-09-30T14:00:01;7.17;;;4.00;;
3547;SDS011;1788;49.400;11.092;2023-09-30T14:02:27;6.70;;;3.87;;
3547;SDS011;1788;49.400;11.092;2023-09-30T14:04:54;8.23;;;4.10;;
3547;SDS011;1788;49.400;11.092;2023-09-30T14:07:21;8.70;;;4.27;;
3547;SDS011;1788;49.400;11.092;2023-09-30T14:09:48;8.60;;;3.77;;
3547;SDS011;1788;49.400;11.092;2023-09-30T14:12:14;5.03;;;3.77;;
3547;SDS011;1788;49.400;11.092;2023-09-30T14:14:41;9.50;;;4.47;;
3547;SDS011;1788;49.400;11.092;2023-09-30T14:17:08;7.23;;;4.03;;
3547;SDS011;1788;49.400;11.092;2023-09-30T14:19:35;7.47;;;3.83;;
3547;SDS011;1788;49.400;11.092;2023-09-30T14:22:03;5.47;;;4.20;;
3547;SDS011;1788;49.400;11.092;2023-09-30T14:24:31;7.90;;;3.63;;
3547;SDS011;1788;49.400;11.092;2023-09-30T14:26:57;9.63;;;4.43;;
3547;SDS011;1788;49.400;11.092;2023-09-30T14:29:24;6.07;;;3.87;;
3547;SDS011;1788;49.400;11.092;2023-09-30T14:31:51;4.97;;;3.83;;
3547;SDS011;1788;49.400;11.092;2023-09-30T14:34:18;7.00;;;4.17;;
3547;SDS011;1788;49.400;11.092;2023-09-30T14:36:44;5.50;;;3.57;;
3547;SDS011;1788;49.400;11.092;2023-09-30T14:39:11;8.77;;;3.93;;
3547;SDS011;1788;49.400;11.092;2023-09-30T14:41:38;8.57;;;4.80;;
3547;SDS011;1788;49.400;11.092;2023-09-30T14:44:04;8.17;;;4.13;;
3547;SDS011;1788;49.400;11.092;2023-09-30T14:46:31;5.87;;;3.43;;
3547;SDS011;1788;49.400;11.092;2023-09-30T14:48:58;7.33;;;3.77;;
3547;SDS011;1788;49.400;11.092;2023-09-30T14:51:25;8.33;;;4.73;;
3547;SDS011;1788;49.400;11.092;2023-09-30T14:53:52;7.43;;;4.13;;
3547;SDS011;1788;49.400;11.092;2023-09-30T14:56:19;6.87;;;4.30;;
3547;SDS011;1788;49.400;11.092;2023-09-30T14:58:45;7.23;;;4.13;;
3547;SDS011;1788;49.400;11.092;2023-09-30T15:01:12;8.07;;;4.23;;
3547;SDS011;1788;49.400;11.092;2023-09-30T15:03:39;5.30;;;3.93;;
3547;SDS011;1788;49.400;11.092;2023-09-30T15:06:05;7.93;;;4.77;;
3547;SDS011;1788;49.400;11.092;2023-09-30T15:08:32;7.83;;;4.40;;
3547;SDS011;1788;49.400;11.092;2023-09-30T15:10:59;8.43;;;4.43;;
3547;SDS011;1788;49.400;11.092;2023-09-30T15:13:25;9.43;;;4.90;;
3547;SDS011;1788;49.400;11.092;2023-09-30T15:15:52;10.20;;;4.23;;
3547;SDS011;1788;49.400;11.092;2023-09-30T15:18:19;6.67;;;4.33;;
3547;SDS011;1788;49.400;11.092;2023-09-30T15:20:48;6.93;;;4.23;;
3547;SDS011;1788;49.400;11.092;2023-09-30T15:23:13;6.90;;;3.97;;
3547;SDS011;1788;49.400;11.092;2023-09-30T15:25:40;9.23;;;4.63;;
3547;SDS011;1788;49.400;11.092;2023-09-30T15:28:07;8.77;;;4.60;;
3547;SDS011;1788;49.400;11.092;2023-09-30T15:30:34;7.53;;;4.10;;
3547;SDS011;1788;49.400;11.092;2023-09-30T15:33:00;6.43;;;3.80;;
3547;SDS011;1788;49.400;11.092;2023-09-30T15:35:27;9.27;;;4.50;;
3547;SDS011;1788;49.400;11.092;2023-09-30T15:37:53;11.00;;;4.17;;
3547;SDS011;1788;49.400;11.092;2023-09-30T15:40:20;6.87;;;4.03;;
3547;SDS011;1788;49.400;11.092;2023-09-30T15:42:47;9.37;;;4.47;;